.
WxDataArchive / Data Records for 2008-07-12
2008-07-11 July 2008 2008-07-13

Data Records for Saturday, 12 July 2008

Time	Temp	Chill	HIndex	Humid	Dewpt	 Wind 	HiWind	WindDir	Rain 	Barom 
-----	----	-----	------	-----	-----	------	------	-------	-----	----- 
00:00	76.0	76.0	77.2	78	68.6	0	2	292	0.00	29.953 
00:05	75.8	75.8	76.9	78	68.4	0	2	292	0.00	29.951 
00:10	75.8	75.8	76.9	78	68.4	0	1	292	0.00	29.950 
00:15	75.8	75.8	76.8	79	68.8	0	1	292	0.00	29.952 
00:20	75.6	75.6	76.5	79	68.6	0	1	292	0.00	29.952 
00:25	75.4	75.4	76.1	80	68.8	0	1	292	0.00	29.952 
00:30	75.3	75.3	76.0	80	68.7	0	1	292	0.00	29.950 
00:35	75.3	75.3	76.0	80	68.7	0	1	292	0.00	29.948 
00:40	75.1	75.1	75.6	81	68.9	0	1	292	0.00	29.948 
00:45	74.9	74.9	74.9	81	68.7	0	0	---	0.00	29.950 
00:50	74.7	74.7	74.7	81	68.5	0	0	---	0.00	29.948 
00:55	74.6	74.6	74.6	82	68.7	0	0	---	0.00	29.950 
01:00	74.6	74.6	74.6	83	69.1	0	1	292	0.00	29.949 
01:05	74.4	74.4	74.4	83	68.9	0	0	---	0.00	29.946 
01:10	74.2	74.2	74.2	83	68.7	0	1	292	0.00	29.939 
01:15	74.0	74.0	74.0	84	68.8	0	0	---	0.00	29.936 
01:20	74.0	74.0	74.0	84	68.8	0	0	---	0.00	29.936 
01:25	73.9	73.9	73.9	84	68.7	0	0	---	0.00	29.936 
01:30	73.7	73.7	73.7	85	68.9	0	0	---	0.00	29.933 
01:35	73.7	73.7	73.7	85	68.9	0	0	---	0.00	29.934 
01:40	73.5	73.5	73.5	85	68.7	0	0	---	0.00	29.930 
01:45	73.3	73.3	73.3	86	68.8	0	0	---	0.00	29.929 
01:50	73.2	73.2	73.2	86	68.7	0	0	---	0.00	29.926 
01:55	73.2	73.2	73.2	86	68.7	0	0	---	0.00	29.924 
02:00	73.0	73.0	73.0	86	68.6	0	0	---	0.00	29.924 
02:05	73.0	73.0	73.0	87	68.9	0	1	292	0.00	29.923 
02:10	73.0	73.0	73.0	87	68.9	0	0	---	0.00	29.922 
02:15	73.0	73.0	73.0	87	68.9	0	1	292	0.00	29.921 
02:20	72.8	72.8	72.8	87	68.7	0	0	---	0.00	29.916 
02:25	72.7	72.7	72.7	87	68.6	0	1	292	0.00	29.908 
02:30	72.7	72.7	72.7	87	68.6	0	1	292	0.00	29.906 
02:35	72.7	72.7	72.7	87	68.6	0	1	292	0.00	29.905 
02:40	72.8	72.8	72.8	87	68.7	0	2	292	0.00	29.904 
02:45	72.8	72.8	72.8	87	68.7	0	1	292	0.00	29.905 
02:50	72.8	72.8	72.8	87	68.7	0	0	---	0.00	29.904 
02:55	72.8	72.8	72.8	87	68.7	0	1	292	0.00	29.900 
03:00	72.8	72.8	72.8	87	68.7	0	2	292	0.00	29.899 
03:05	72.8	72.8	72.8	87	68.7	0	0	---	0.00	29.899 
03:10	73.0	73.0	73.0	87	68.9	0	1	292	0.00	29.902 
03:15	73.0	73.0	73.0	87	68.9	0	1	292	0.00	29.899 
03:20	73.2	73.2	73.2	86	68.7	0	2	292	0.00	29.899 
03:25	73.3	73.3	73.3	86	68.8	0	2	292	0.00	29.901 
03:30	73.3	73.3	73.3	86	68.8	0	2	292	0.00	29.902 
03:35	73.5	73.5	73.5	85	68.7	1	6	248	0.00	29.902 
03:40	73.7	73.7	73.7	85	68.9	0	2	248	0.00	29.899 
03:45	73.7	73.7	73.7	85	68.9	0	3	248	0.00	29.898 
03:50	73.9	73.9	73.9	85	69.1	0	2	248	0.00	29.890 
03:55	74.0	74.0	74.0	84	68.8	0	1	248	0.00	29.889 
04:00	74.0	74.0	74.0	84	68.8	0	4	248	0.00	29.888 
04:05	74.2	74.2	74.2	84	69.0	1	4	248	0.00	29.889 
04:10	74.4	74.4	74.4	84	69.2	0	3	248	0.00	29.886 
04:15	74.4	74.4	74.4	83	68.9	0	1	248	0.00	29.879 
04:20	74.2	74.2	74.2	84	69.0	0	2	248	0.00	29.877 
04:25	74.2	74.2	74.2	84	69.0	0	2	248	0.00	29.876 
04:30	74.0	74.0	74.0	84	68.8	0	1	248	0.00	29.875 
04:35	73.9	73.9	73.9	84	68.7	0	2	248	0.00	29.874 
04:40	73.9	73.9	73.9	84	68.7	0	2	248	0.00	29.872 
04:45	73.9	73.9	73.9	85	69.1	0	3	248	0.00	29.872 
04:50	73.7	73.7	73.7	85	68.9	0	1	248	0.00	29.866 
04:55	73.7	73.7	73.7	85	68.9	0	1	248	0.00	29.868 
05:00	73.7	73.7	73.7	85	68.9	0	1	248	0.00	29.869 
05:05	73.5	73.5	73.5	86	69.0	0	1	248	0.00	29.871 
05:10	73.5	73.5	73.5	86	69.0	0	2	248	0.00	29.873 
05:15	73.5	73.5	73.5	86	69.0	0	1	248	0.00	29.873 
05:20	73.5	73.5	73.5	86	69.0	0	2	248	0.00	29.874 
05:25	73.7	73.7	73.7	86	69.2	0	2	248	0.00	29.874 
05:30	73.7	73.7	73.7	86	69.2	0	1	248	0.00	29.871 
05:35	73.7	73.7	73.7	86	69.2	0	2	248	0.00	29.873 
05:40	73.7	73.7	73.7	86	69.2	0	1	248	0.00	29.874 
05:45	73.5	73.5	73.5	86	69.0	0	1	248	0.00	29.872 
05:50	73.5	73.5	73.5	86	69.0	0	1	248	0.00	29.873 
05:55	73.5	73.5	73.5	86	69.0	0	1	248	0.00	29.873 
06:00	73.5	73.5	73.5	86	69.0	0	2	248	0.00	29.874 
06:05	73.5	73.5	73.5	87	69.4	0	1	248	0.00	29.876 
06:10	73.5	73.5	73.5	87	69.4	0	1	248	0.00	29.876 
06:15	73.5	73.5	73.5	87	69.4	0	3	248	0.00	29.877 
06:20	73.7	73.7	73.7	87	69.6	0	1	225	0.00	29.878 
06:25	73.7	73.7	73.7	87	69.6	0	1	225	0.00	29.878 
06:30	73.9	73.9	73.9	87	69.8	0	1	225	0.00	29.879 
06:35	73.9	73.9	73.9	87	69.8	0	1	225	0.00	29.878 
06:40	74.2	74.2	74.2	87	70.1	0	1	225	0.00	29.878 
06:45	74.4	74.4	74.4	86	69.9	0	1	225	0.00	29.877 
06:50	74.9	74.9	74.9	86	70.4	0	2	202	0.00	29.876 
06:55	75.4	75.4	75.7	84	70.2	0	3	112	0.00	29.878 
07:00	75.8	75.8	76.4	83	70.3	1	4	225	0.00	29.889 
07:05	75.8	75.8	76.4	83	70.3	1	3	248	0.00	29.893 
07:10	75.8	75.8	76.5	82	69.9	2	5	248	0.00	29.893 
07:15	75.6	75.6	76.1	83	70.1	3	7	248	0.00	29.892 
07:20	75.1	75.1	75.0	85	70.3	3	9	248	0.02	29.897 
07:25	74.2	74.2	74.2	88	70.4	2	5	292	0.03	29.905 
07:30	73.5	73.5	73.5	89	70.0	2	4	248	0.01	29.900 
07:35	73.2	73.2	73.2	91	70.4	2	6	270	0.00	29.905 
07:40	73.2	73.2	73.2	91	70.4	2	4	270	0.00	29.903 
07:45	73.2	73.2	73.2	92	70.7	1	5	270	0.07	29.908 
07:50	72.8	72.8	72.8	92	70.3	2	6	270	0.01	29.908 
07:55	72.7	72.7	72.7	92	70.2	2	4	248	0.00	29.908 
08:00	72.8	72.8	72.8	93	70.7	2	5	248	0.00	29.909 
08:05	73.0	73.0	73.0	93	70.8	1	4	248	0.00	29.909 
08:10	73.0	73.0	73.0	93	70.8	2	4	270	0.00	29.910 
08:15	73.2	73.2	73.2	93	71.0	1	3	270	0.00	29.910 
08:20	73.2	73.2	73.2	93	71.0	1	3	248	0.00	29.907 
08:25	73.2	73.2	73.2	93	71.0	1	4	270	0.00	29.908 
08:30	73.3	73.3	73.3	93	71.1	1	3	248	0.01	29.909 
08:35	73.5	73.5	73.5	93	71.3	1	3	270	0.00	29.908 
08:40	73.5	73.5	73.5	93	71.3	2	4	248	0.00	29.909 
08:45	73.7	73.7	73.7	93	71.5	1	4	248	0.00	29.905 
08:50	73.7	73.7	73.7	92	71.2	1	4	270	0.00	29.902 
08:55	73.7	73.7	73.7	92	71.2	1	4	270	0.00	29.897 
09:00	73.9	73.9	73.9	92	71.4	1	3	248	0.00	29.899 
09:05	73.7	73.7	73.7	91	70.9	1	4	225	0.00	29.901 
09:10	73.9	73.9	73.9	91	71.1	1	4	248	0.00	29.901 
09:15	74.2	74.2	74.2	91	71.4	0	2	292	0.00	29.902 
09:20	74.2	74.2	74.2	91	71.4	1	3	292	0.00	29.908 
09:25	74.2	74.2	74.2	90	71.1	1	4	225	0.00	29.908 
09:30	74.4	74.4	74.4	90	71.3	1	2	225	0.00	29.906 
09:35	74.4	74.4	74.4	90	71.3	1	3	270	0.00	29.905 
09:40	74.4	74.4	74.4	88	70.6	1	3	270	0.00	29.899 
09:45	74.6	74.6	74.6	87	70.5	1	3	270	0.00	29.896 
09:50	74.7	74.7	74.7	87	70.6	1	2	270	0.00	29.897 
09:55	74.9	74.9	74.9	86	70.4	1	3	248	0.00	29.896 
10:00	75.1	75.1	75.0	85	70.3	1	3	248	0.00	29.896 
10:05	75.3	75.3	75.5	84	70.1	1	2	248	0.00	29.895 
10:10	75.4	75.4	75.5	85	70.6	0	2	248	0.00	29.894 
10:15	75.6	75.6	76.0	84	70.4	1	2	248	0.00	29.894 
10:20	76.0	76.0	76.8	82	70.1	1	4	270	0.00	29.890 
10:25	76.3	76.3	77.3	82	70.4	1	5	270	0.00	29.887 
10:30	76.7	76.7	78.0	81	70.4	1	4	270	0.00	29.881 
10:35	76.7	76.7	78.0	81	70.4	1	3	68	0.00	29.878 
10:40	76.8	76.8	78.2	81	70.5	1	3	270	0.00	29.871 
10:45	76.8	76.8	78.2	80	70.1	1	3	248	0.00	29.863 
10:50	76.7	76.7	78.0	81	70.4	0	2	270	0.00	29.860 
10:55	76.5	76.5	77.7	81	70.2	1	3	270	0.00	29.858 
11:00	76.5	76.5	77.7	82	70.6	0	3	248	0.00	29.850 
11:05	76.5	76.5	77.7	81	70.2	1	4	90	0.00	29.846 
11:10	76.5	76.5	77.8	80	69.9	1	4	68	0.00	29.833 
11:15	76.1	76.1	77.1	81	69.8	1	5	68	0.00	29.827 
11:20	75.8	75.8	76.4	83	70.3	2	6	90	0.00	29.826 
11:25	75.8	75.8	76.2	85	71.0	1	4	158	0.00	29.822 
11:30	75.6	75.6	75.9	85	70.8	1	6	248	0.00	29.827 
11:35	75.6	75.6	76.0	84	70.4	1	4	270	0.00	29.829 
11:40	75.8	75.8	76.3	84	70.6	2	5	270	0.00	29.832 
11:45	75.8	75.8	76.4	83	70.3	1	6	90	0.00	29.838 
11:50	76.0	76.0	76.7	83	70.4	1	4	270	0.00	29.846 
11:55	76.5	76.5	77.6	83	70.9	1	2	270	0.00	29.847 
12:00	77.0	77.0	78.5	81	70.7	1	2	270	0.00	29.842 
12:05	77.7	77.7	79.8	80	71.0	1	3	270	0.00	29.844 
12:10	78.3	78.3	80.8	78	70.9	1	3	270	0.00	29.843 
12:15	78.1	78.1	80.3	75	69.5	2	4	248	0.00	29.842 
12:20	78.5	78.5	81.0	75	69.9	2	4	248	0.00	29.839 
12:25	78.3	78.3	80.6	75	69.7	1	3	270	0.00	29.838 
12:30	78.5	78.5	81.0	76	70.3	1	3	270	0.00	29.837 
12:35	78.6	78.6	81.2	76	70.4	1	3	248	0.00	29.833 
12:40	79.2	79.2	82.5	79	72.1	1	3	90	0.00	29.828 
12:45	79.8	79.8	83.2	75	71.1	1	3	292	0.00	29.821 
12:50	80.1	80.1	83.5	73	70.6	1	6	292	0.00	29.821 
12:55	80.1	80.1	83.4	72	70.2	1	3	248	0.00	29.817 
13:00	79.9	79.9	83.0	72	70.0	1	3	225	0.00	29.821 
13:05	80.1	80.1	83.4	72	70.2	1	3	270	0.00	29.823 
13:10	80.1	80.1	83.5	73	70.6	2	4	270	0.00	29.824 
13:15	80.3	80.3	83.7	72	70.4	1	5	270	0.00	29.818 
13:20	80.1	80.1	83.1	70	69.4	2	4	248	0.00	29.818 
13:25	80.1	80.1	83.6	74	71.0	1	4	270	0.00	29.816 
13:30	80.7	80.7	84.3	71	70.4	1	3	270	0.00	29.811 
13:35	81.1	81.1	84.8	70	70.4	1	3	292	0.00	29.812 
13:40	81.6	81.6	85.9	71	71.3	1	3	270	0.00	29.813 
13:45	81.8	81.8	85.5	67	69.7	2	4	248	0.00	29.810 
13:50	82.2	82.2	86.8	70	71.4	1	3	248	0.00	29.809 
13:55	82.4	82.4	86.7	68	70.8	2	4	248	0.00	29.807 
14:00	82.6	82.6	86.4	65	69.6	2	4	248	0.00	29.803 
14:05	82.8	82.8	86.7	65	69.8	2	5	270	0.00	29.799 
14:10	83.0	83.0	87.1	65	70.0	2	4	248	0.00	29.798 
14:15	83.0	83.0	86.9	64	69.5	3	6	270	0.00	29.798 
14:20	83.2	83.2	87.2	64	69.7	2	4	270	0.00	29.799 
14:25	83.0	83.0	87.1	65	70.0	2	5	270	0.00	29.800 
14:30	82.6	82.6	85.9	63	68.7	3	6	270	0.00	29.802 
14:35	82.8	82.8	86.5	64	69.3	3	5	270	0.00	29.801 
14:40	83.2	83.2	87.2	64	69.7	3	7	270	0.00	29.805 
14:45	83.6	83.6	87.6	63	69.6	2	6	248	0.00	29.802 
14:50	83.6	83.6	87.4	62	69.2	2	5	270	0.00	29.801 
14:55	83.6	83.6	87.6	63	69.6	2	6	270	0.00	29.803 
15:00	83.4	83.4	86.8	61	68.5	3	7	270	0.00	29.803 
15:05	83.6	83.6	87.6	63	69.6	3	5	270	0.00	29.804 
15:10	84.0	84.0	88.6	64	70.5	2	3	248	0.00	29.808 
15:15	84.0	84.0	87.8	61	69.1	2	5	292	0.00	29.809 
15:20	83.2	83.2	86.5	61	68.3	2	4	270	0.00	29.813 
15:25	82.8	82.8	86.1	62	68.4	2	5	315	0.00	29.814 
15:30	83.2	83.2	86.5	61	68.3	2	5	292	0.00	29.814 
15:35	83.6	83.6	86.6	59	67.7	2	5	315	0.00	29.811 
15:40	83.6	83.6	86.4	58	67.2	3	6	315	0.00	29.811 
15:45	83.8	83.8	86.9	59	67.9	2	5	270	0.00	29.813 
15:50	84.1	84.1	87.2	58	67.7	2	5	338	0.00	29.812 
15:55	84.1	84.1	86.2	54	65.6	2	4	315	0.00	29.813 
16:00	84.1	84.1	86.9	57	67.2	2	5	315	0.00	29.811 
16:05	84.5	84.5	87.8	58	68.1	1	3	315	0.00	29.812 
16:10	84.7	84.7	87.6	56	67.2	2	3	270	0.00	29.809 
16:15	84.7	84.7	87.0	54	66.2	1	3	315	0.00	29.808 
16:20	84.7	84.7	86.8	53	65.6	1	3	315	0.00	29.809 
16:25	84.5	84.5	86.7	54	66.0	1	2	315	0.00	29.811 
16:30	84.1	84.1	86.2	54	65.6	1	2	315	0.00	29.813 
16:35	84.0	84.0	86.3	55	66.1	1	3	292	0.00	29.810 
16:40	83.8	83.8	86.4	57	66.9	1	2	338	0.00	29.808 
16:45	84.1	84.1	86.9	57	67.2	1	5	248	0.00	29.802 
16:50	84.3	84.3	87.2	57	67.4	0	2	248	0.00	29.802 
16:55	84.5	84.5	87.8	58	68.1	1	2	248	0.00	29.803 
17:00	84.1	84.1	87.7	60	68.7	1	2	315	0.00	29.799 
17:05	83.8	83.8	86.7	58	67.4	1	2	315	0.00	29.800 
17:10	83.8	83.8	86.9	59	67.9	1	3	270	0.00	29.801 
17:15	83.8	83.8	87.2	60	68.4	1	3	270	0.00	29.803 
17:20	83.8	83.8	86.9	59	67.9	1	2	315	0.00	29.802 
17:25	83.8	83.8	86.9	59	67.9	1	2	315	0.00	29.801 
17:30	83.6	83.6	86.6	59	67.7	1	3	315	0.00	29.803 
17:35	83.6	83.6	86.9	60	68.2	1	4	270	0.00	29.803 
17:40	83.4	83.4	86.3	59	67.5	1	3	270	0.00	29.807 
17:45	83.2	83.2	86.2	60	67.8	0	1	315	0.00	29.804 
17:50	83.0	83.0	85.9	60	67.7	0	3	270	0.00	29.801 
17:55	82.8	82.8	85.6	60	67.5	1	3	315	0.00	29.800 
18:00	83.0	83.0	86.1	61	68.1	1	2	248	0.00	29.798 
18:05	82.8	82.8	85.8	61	67.9	1	3	292	0.00	29.797 
18:10	82.8	82.8	85.8	61	67.9	1	2	292	0.00	29.794 
18:15	82.6	82.6	85.7	62	68.2	0	3	292	0.00	29.788 
18:20	82.6	82.6	85.9	63	68.7	0	1	292	0.00	29.789 
18:25	82.6	82.6	85.9	63	68.7	1	3	292	0.00	29.792 
18:30	82.4	82.4	85.4	62	68.0	1	3	315	0.00	29.793 
18:35	82.4	82.4	85.4	62	68.0	1	3	315	0.00	29.786 
18:40	82.0	82.0	85.0	63	68.1	0	1	315	0.00	29.783 
18:45	81.8	81.8	84.9	64	68.4	0	1	315	0.00	29.786 
18:50	81.6	81.6	84.6	64	68.2	0	2	315	0.00	29.787 
18:55	81.2	81.2	84.1	65	68.3	0	2	315	0.00	29.786 
19:00	81.1	81.1	84.0	65	68.2	0	2	315	0.00	29.784 
19:05	80.9	80.9	83.7	65	68.0	0	1	315	0.00	29.785 
19:10	80.9	80.9	83.8	66	68.4	0	1	315	0.00	29.784 
19:15	80.7	80.7	83.7	67	68.7	0	1	315	0.00	29.784 
19:20	80.5	80.5	83.5	68	68.9	0	1	315	0.00	29.784 
19:25	80.3	80.3	83.2	68	68.8	0	0	---	0.00	29.785 
19:30	80.1	80.1	82.9	68	68.6	0	1	315	0.00	29.785 
19:35	80.1	80.1	83.0	69	69.0	0	0	---	0.00	29.787 
19:40	79.9	79.9	82.7	69	68.8	0	1	315	0.00	29.786 
19:45	79.8	79.8	82.5	69	68.7	0	1	315	0.00	29.786 
19:50	79.8	79.8	82.5	69	68.7	0	1	315	0.00	29.785 
19:55	79.8	79.8	82.5	69	68.7	0	1	315	0.00	29.786 
20:00	79.6	79.6	82.3	70	68.9	0	0	---	0.00	29.785 
20:05	79.4	79.4	82.1	71	69.2	0	0	---	0.00	29.784 
20:10	79.2	79.2	81.8	71	69.0	0	0	---	0.00	29.785 
20:15	79.0	79.0	81.4	70	68.4	0	0	---	0.00	29.786 
20:20	78.8	78.8	81.2	71	68.6	0	0	---	0.00	29.786 
20:25	78.6	78.6	81.0	72	68.8	0	0	---	0.00	29.786 
20:30	78.5	78.5	80.9	73	69.1	0	0	---	0.00	29.788 
20:35	78.1	78.1	80.3	73	68.7	0	0	---	0.00	29.791 
20:40	77.9	77.9	80.0	74	68.9	0	0	---	0.00	29.796 
20:45	77.6	77.6	79.6	74	68.6	0	0	---	0.00	29.800 
20:50	77.4	77.4	79.3	75	68.8	0	0	---	0.00	29.802 
20:55	77.2	77.2	79.0	75	68.6	0	0	---	0.00	29.802 
21:00	77.2	77.2	79.0	76	69.0	0	0	---	0.00	29.802 
21:05	77.2	77.2	79.0	76	69.0	0	0	---	0.00	29.802 
21:10	77.2	77.2	79.0	77	69.4	0	0	---	0.00	29.802 
21:15	77.0	77.0	78.7	77	69.2	0	0	---	0.00	29.803 
21:20	77.0	77.0	78.7	76	68.8	0	1	315	0.00	29.803 
21:25	77.0	77.0	78.7	76	68.8	0	0	---	0.00	29.804 
21:30	77.0	77.0	78.7	77	69.2	0	0	---	0.00	29.804 
21:35	77.0	77.0	78.7	77	69.2	0	0	---	0.00	29.804 
21:40	77.0	77.0	78.7	76	68.8	0	0	---	0.00	29.804 
21:45	77.2	77.2	79.0	75	68.6	0	0	---	0.00	29.804 
21:50	77.4	77.4	79.3	75	68.8	0	0	---	0.00	29.803 
21:55	77.4	77.4	79.3	75	68.8	0	1	315	0.00	29.805 
22:00	77.6	77.6	79.6	74	68.6	0	1	315	0.00	29.804 
22:05	77.7	77.7	79.7	73	68.3	0	1	315	0.00	29.804 
22:10	77.9	77.9	80.0	73	68.5	0	1	315	0.00	29.801 
22:15	77.9	77.9	80.0	73	68.5	0	1	315	0.00	29.800 
22:20	77.9	77.9	80.0	73	68.5	0	1	315	0.00	29.799 
22:25	77.7	77.7	79.7	74	68.7	0	1	315	0.00	29.798 
22:30	77.7	77.7	79.7	74	68.7	0	0	---	0.00	29.795 
22:35	77.6	77.6	79.6	74	68.6	0	0	---	0.00	29.795 
22:40	77.4	77.4	79.3	75	68.8	0	0	---	0.00	29.796 
22:45	77.2	77.2	79.0	75	68.6	0	1	315	0.00	29.797 
22:50	77.2	77.2	79.0	75	68.6	0	1	315	0.00	29.797 
22:55	77.2	77.2	79.0	75	68.6	0	2	315	0.00	29.798 
23:00	77.2	77.2	79.0	75	68.6	0	2	315	0.00	29.795 
23:05	77.2	77.2	79.0	76	69.0	0	1	315	0.00	29.796 
23:10	77.0	77.0	78.7	76	68.8	0	1	315	0.00	29.794 
23:15	76.8	76.8	78.4	77	69.0	0	0	---	0.00	29.795 
23:20	76.7	76.7	78.2	77	68.9	0	0	---	0.00	29.795 
23:25	76.5	76.5	77.9	78	69.1	0	0	---	0.00	29.795 
23:30	76.3	76.3	77.6	78	68.9	0	0	---	0.00	29.800 
23:35	76.1	76.1	77.2	79	69.1	0	0	---	0.00	29.800 
23:40	76.0	76.0	77.1	79	69.0	0	0	---	0.00	29.798 
23:45	75.8	75.8	76.7	80	69.2	0	0	---	0.00	29.797 
23:50	75.4	75.4	76.0	81	69.1	0	0	---	0.00	29.788 
23:55	75.3	75.3	75.9	81	69.1	0	0	---	0.00	29.791 

CoCoRaHS
IN-AL-39
A2 Web Hosting
Creative Commons License
GoDaddy
Look for:

loaded 2017-12-12 15:06:22 • last modified 2010-11-18 10:43:29
Privacy PolicyDisclaimer
• wx.awcolley.com is powered by PmWiki v.2002016 •
• all content (unless otherwise noted) © 2017 A W Colley